sensor_id;sensor_type;location;lat;lon;timestamp;pressure;altitude;pressure_sealevel;temperature
72140;BMP280;60018;49.688;19.180;2022-11-15T00:01:24;97823.41;;;0.50
72140;BMP280;60018;49.688;19.180;2022-11-15T00:03:51;97820.16;;;0.49
72140;BMP280;60018;49.688;19.180;2022-11-15T00:06:16;97821.16;;;0.48
72140;BMP280;60018;49.688;19.180;2022-11-15T00:08:42;97820.16;;;0.49
72140;BMP280;60018;49.688;19.180;2022-11-15T00:11:10;97814.34;;;0.49
72140;BMP280;60018;49.688;19.180;2022-11-15T00:13:35;97811.34;;;0.47
72140;BMP280;60018;49.688;19.180;2022-11-15T00:16:01;97807.06;;;0.47
72140;BMP280;60018;49.688;19.180;2022-11-15T00:18:29;97812.28;;;0.51
72140;BMP280;60018;49.688;19.180;2022-11-15T00:20:55;97799.84;;;0.54
72140;BMP280;60018;49.688;19.180;2022-11-15T00:23:20;97811.63;;;0.59
72140;BMP280;60018;49.688;19.180;2022-11-15T00:25:46;97810.56;;;0.60
72140;BMP280;60018;49.688;19.180;2022-11-15T00:28:11;97804.78;;;0.59
72140;BMP280;60018;49.688;19.180;2022-11-15T00:30:37;97807.28;;;0.59
72140;BMP280;60018;49.688;19.180;2022-11-15T00:33:02;97808.34;;;0.58
72140;BMP280;60018;49.688;19.180;2022-11-15T00:35:31;97808.16;;;0.55
72140;BMP280;60018;49.688;19.180;2022-11-15T00:37:56;97799.97;;;0.49
72140;BMP280;60018;49.688;19.180;2022-11-15T00:40:22;97798.00;;;0.46
72140;BMP280;60018;49.688;19.180;2022-11-15T00:42:47;97794.25;;;0.44
72140;BMP280;60018;49.688;19.180;2022-11-15T00:45:12;97790.44;;;0.46
72140;BMP280;60018;49.688;19.180;2022-11-15T00:47:38;97787.72;;;0.43
72140;BMP280;60018;49.688;19.180;2022-11-15T00:50:04;97797.34;;;0.41
72140;BMP280;60018;49.688;19.180;2022-11-15T00:52:31;97792.16;;;0.37
72140;BMP280;60018;49.688;19.180;2022-11-15T00:54:56;97786.50;;;0.32
72140;BMP280;60018;49.688;19.180;2022-11-15T00:57:22;97789.28;;;0.30
72140;BMP280;60018;49.688;19.180;2022-11-15T00:59:47;97788.09;;;0.28
72140;BMP280;60018;49.688;19.180;2022-11-15T01:02:13;97786.44;;;0.23
72140;BMP280;60018;49.688;19.180;2022-11-15T01:04:38;97785.06;;;0.17
72140;BMP280;60018;49.688;19.180;2022-11-15T01:07:04;97787.09;;;0.15
72140;BMP280;60018;49.688;19.180;2022-11-15T01:09:30;97784.59;;;0.15
72140;BMP280;60018;49.688;19.180;2022-11-15T01:11:56;97790.81;;;0.18
72140;BMP280;60018;49.688;19.180;2022-11-15T01:14:21;97798.88;;;0.20
72140;BMP280;60018;49.688;19.180;2022-11-15T01:16:46;97794.41;;;0.17
72140;BMP280;60018;49.688;19.180;2022-11-15T01:19:12;97786.34;;;0.15
72140;BMP280;60018;49.688;19.180;2022-11-15T01:21:37;97777.00;;;0.15
72140;BMP280;60018;49.688;19.180;2022-11-15T01:24:03;97779.25;;;0.17
72140;BMP280;60018;49.688;19.180;2022-11-15T01:26:30;97782.69;;;0.21
72140;BMP280;60018;49.688;19.180;2022-11-15T01:28:55;97779.16;;;0.22
72140;BMP280;60018;49.688;19.180;2022-11-15T01:31:21;97792.22;;;0.24
72140;BMP280;60018;49.688;19.180;2022-11-15T01:33:47;97787.63;;;0.26
72140;BMP280;60018;49.688;19.180;2022-11-15T01:36:14;97771.00;;;0.25
72140;BMP280;60018;49.688;19.180;2022-11-15T01:38:40;97763.44;;;0.25
72140;BMP280;60018;49.688;19.180;2022-11-15T01:41:05;97781.38;;;0.23
72140;BMP280;60018;49.688;19.180;2022-11-15T01:43:34;97775.69;;;0.18
72140;BMP280;60018;49.688;19.180;2022-11-15T01:46:02;97776.72;;;0.17
72140;BMP280;60018;49.688;19.180;2022-11-15T01:48:31;97774.97;;;0.17
72140;BMP280;60018;49.688;19.180;2022-11-15T01:50:58;97763.66;;;0.15
72140;BMP280;60018;49.688;19.180;2022-11-15T01:53:25;97763.19;;;0.13
72140;BMP280;60018;49.688;19.180;2022-11-15T01:55:51;97768.50;;;0.11
72140;BMP280;60018;49.688;19.180;2022-11-15T01:58:17;97768.06;;;0.09
72140;BMP280;60018;49.688;19.180;2022-11-15T02:00:44;97755.75;;;0.08
72140;BMP280;60018;49.688;19.180;2022-11-15T02:03:09;97752.75;;;0.06
72140;BMP280;60018;49.688;19.180;2022-11-15T02:05:36;97741.91;;;0.05
72140;BMP280;60018;49.688;19.180;2022-11-15T02:08:01;97748.28;;;0.03
72140;BMP280;60018;49.688;19.180;2022-11-15T02:10:27;97745.75;;;0.03
72140;BMP280;60018;49.688;19.180;2022-11-15T02:12:53;97749.75;;;0.03
72140;BMP280;60018;49.688;19.180;2022-11-15T02:15:20;97745.00;;;0.02
72140;BMP280;60018;49.688;19.180;2022-11-15T02:17:58;97747.06;;;0.00
72140;BMP280;60018;49.688;19.180;2022-11-15T02:20:42;97742.47;;;0.02
72140;BMP280;60018;49.688;19.180;2022-11-15T02:23:49;97744.25;;;0.02
72140;BMP280;60018;49.688;19.180;2022-11-15T02:26:45;97735.19;;;0.00
72140;BMP280;60018;49.688;19.180;2022-11-15T02:29:21;97738.19;;;0.03
72140;BMP280;60018;49.688;19.180;2022-11-15T02:31:56;97738.66;;;0.05
72140;BMP280;60018;49.688;19.180;2022-11-15T02:34:30;97733.75;;;0.08
72140;BMP280;60018;49.688;19.180;2022-11-15T02:37:03;97729.81;;;0.16
72140;BMP280;60018;49.688;19.180;2022-11-15T02:39:35;97722.03;;;0.26
72140;BMP280;60018;49.688;19.180;2022-11-15T02:42:09;97722.69;;;0.40
72140;BMP280;60018;49.688;19.180;2022-11-15T02:44:39;97727.44;;;0.41
72140;BMP280;60018;49.688;19.180;2022-11-15T02:47:11;97719.25;;;0.36
72140;BMP280;60018;49.688;19.180;2022-11-15T02:49:40;97735.69;;;0.33
72140;BMP280;60018;49.688;19.180;2022-11-15T02:52:06;97732.59;;;0.28
72140;BMP280;60018;49.688;19.180;2022-11-15T02:54:33;97725.13;;;0.23
72140;BMP280;60018;49.688;19.180;2022-11-15T02:57:01;97725.97;;;0.18
72140;BMP280;60018;49.688;19.180;2022-11-15T02:59:54;97734.22;;;0.10
72140;BMP280;60018;49.688;19.180;2022-11-15T03:02:33;97723.03;;;0.03
72140;BMP280;60018;49.688;19.180;2022-11-15T03:05:04;97718.84;;;-0.02
72140;BMP280;60018;49.688;19.180;2022-11-15T03:07:39;97725.66;;;-0.03
72140;BMP280;60018;49.688;19.180;2022-11-15T03:10:10;97728.94;;;-0.02
72140;BMP280;60018;49.688;19.180;2022-11-15T03:12:42;97720.81;;;0.01
72140;BMP280;60018;49.688;19.180;2022-11-15T03:15:16;97711.75;;;0.00
72140;BMP280;60018;49.688;19.180;2022-11-15T03:17:48;97724.91;;;-0.03
72140;BMP280;60018;49.688;19.180;2022-11-15T03:20:17;97713.16;;;-0.08
72140;BMP280;60018;49.688;19.180;2022-11-15T03:22:44;97720.38;;;-0.15
72140;BMP280;60018;49.688;19.180;2022-11-15T03:25:14;97715.63;;;-0.16
72140;BMP280;60018;49.688;19.180;2022-11-15T03:27:47;97717.22;;;-0.20
72140;BMP280;60018;49.688;19.180;2022-11-15T03:30:14;97718.53;;;-0.23
72140;BMP280;60018;49.688;19.180;2022-11-15T03:32:46;97714.81;;;-0.25
72140;BMP280;60018;49.688;19.180;2022-11-15T03:35:14;97704.72;;;-0.25
72140;BMP280;60018;49.688;19.180;2022-11-15T03:37:45;97702.94;;;-0.25
72140;BMP280;60018;49.688;19.180;2022-11-15T03:40:14;97682.75;;;-0.25
72140;BMP280;60018;49.688;19.180;2022-11-15T03:42:45;97702.38;;;-0.22
72140;BMP280;60018;49.688;19.180;2022-11-15T03:45:15;97682.75;;;-0.25
72140;BMP280;60018;49.688;19.180;2022-11-15T03:47:45;97692.13;;;-0.25
72140;BMP280;60018;49.688;19.180;2022-11-15T03:50:14;97686.63;;;-0.27
72140;BMP280;60018;49.688;19.180;2022-11-15T03:52:41;97686.16;;;-0.29
72140;BMP280;60018;49.688;19.180;2022-11-15T03:55:09;97683.91;;;-0.31
72140;BMP280;60018;49.688;19.180;2022-11-15T03:57:36;97679.13;;;-0.32
72140;BMP280;60018;49.688;19.180;2022-11-15T04:00:02;97672.88;;;-0.35
72140;BMP280;60018;49.688;19.180;2022-11-15T04:02:28;97673.91;;;-0.36
72140;BMP280;60018;49.688;19.180;2022-11-15T04:04:53;97674.38;;;-0.34
72140;BMP280;60018;49.688;19.180;2022-11-15T04:07:20;97657.47;;;-0.33
72140;BMP280;60018;49.688;19.180;2022-11-15T04:09:45;97665.53;;;-0.31
72140;BMP280;60018;49.688;19.180;2022-11-15T04:12:11;97653.09;;;-0.28
72140;BMP280;60018;49.688;19.180;2022-11-15T04:14:36;97657.56;;;-0.25
72140;BMP280;60018;49.688;19.180;2022-11-15T04:17:02;97649.56;;;-0.27
72140;BMP280;60018;49.688;19.180;2022-11-15T04:19:27;97656.19;;;-0.31
72140;BMP280;60018;49.688;19.180;2022-11-15T04:21:52;97650.19;;;-0.35
72140;BMP280;60018;49.688;19.180;2022-11-15T04:24:19;97652.81;;;-0.40
72140;BMP280;60018;49.688;19.180;2022-11-15T04:26:45;97644.78;;;-0.42
72140;BMP280;60018;49.688;19.180;2022-11-15T04:29:10;97641.53;;;-0.42
72140;BMP280;60018;49.688;19.180;2022-11-15T04:31:35;97637.22;;;-0.42
72140;BMP280;60018;49.688;19.180;2022-11-15T04:34:01;97630.41;;;-0.41
72140;BMP280;60018;49.688;19.180;2022-11-15T04:36:26;97633.13;;;-0.38
72140;BMP280;60018;49.688;19.180;2022-11-15T04:38:52;97632.84;;;-0.36
72140;BMP280;60018;49.688;19.180;2022-11-15T04:41:18;97624.53;;;-0.37
72140;BMP280;60018;49.688;19.180;2022-11-15T04:43:44;97627.03;;;-0.37
72140;BMP280;60018;49.688;19.180;2022-11-15T04:46:09;97623.75;;;-0.37
72140;BMP280;60018;49.688;19.180;2022-11-15T04:48:35;97623.59;;;-0.41
72140;BMP280;60018;49.688;19.180;2022-11-15T04:51:00;97616.34;;;-0.42
72140;BMP280;60018;49.688;19.180;2022-11-15T04:53:25;97618.38;;;-0.44
72140;BMP280;60018;49.688;19.180;2022-11-15T04:55:51;97615.41;;;-0.46
72140;BMP280;60018;49.688;19.180;2022-11-15T04:58:18;97614.66;;;-0.47
72140;BMP280;60018;49.688;19.180;2022-11-15T05:00:43;97622.97;;;-0.46
72140;BMP280;60018;49.688;19.180;2022-11-15T05:03:09;97613.34;;;-0.44
72140;BMP280;60018;49.688;19.180;2022-11-15T05:05:34;97608.03;;;-0.43
72140;BMP280;60018;49.688;19.180;2022-11-15T05:08:00;97602.69;;;-0.41
72140;BMP280;60018;49.688;19.180;2022-11-15T05:10:25;97607.91;;;-0.38
72140;BMP280;60018;49.688;19.180;2022-11-15T05:12:51;97600.34;;;-0.38
72140;BMP280;60018;49.688;19.180;2022-11-15T05:15:17;97595.75;;;-0.36
72140;BMP280;60018;49.688;19.180;2022-11-15T05:17:43;97595.75;;;-0.36
72140;BMP280;60018;49.688;19.180;2022-11-15T05:20:09;97596.50;;;-0.35
72140;BMP280;60018;49.688;19.180;2022-11-15T05:22:35;97598.28;;;-0.36
72140;BMP280;60018;49.688;19.180;2022-11-15T05:25:00;97590.41;;;-0.34
72140;BMP280;60018;49.688;19.180;2022-11-15T05:27:26;97582.72;;;-0.38
72140;BMP280;60018;49.688;19.180;2022-11-15T05:29:51;97584.38;;;-0.33
72140;BMP280;60018;49.688;19.180;2022-11-15T05:32:18;97578.03;;;-0.31
72140;BMP280;60018;49.688;19.180;2022-11-15T05:34:44;97574.50;;;-0.30
72140;BMP280;60018;49.688;19.180;2022-11-15T05:37:09;97579.81;;;-0.31
72140;BMP280;60018;49.688;19.180;2022-11-15T05:39:35;97575.50;;;-0.31
72140;BMP280;60018;49.688;19.180;2022-11-15T05:42:05;97570.19;;;-0.29
72140;BMP280;60018;49.688;19.180;2022-11-15T05:44:32;97575.41;;;-0.26
72140;BMP280;60018;49.688;19.180;2022-11-15T05:46:58;97574.25;;;-0.20
72140;BMP280;60018;49.688;19.180;2022-11-15T05:49:28;97568.34;;;-0.15
72140;BMP280;60018;49.688;19.180;2022-11-15T05:51:55;97568.03;;;-0.14
72140;BMP280;60018;49.688;19.180;2022-11-15T05:54:22;97563.75;;;-0.13
72140;BMP280;60018;49.688;19.180;2022-11-15T05:56:48;97565.41;;;-0.09
72140;BMP280;60018;49.688;19.180;2022-11-15T05:59:14;97556.41;;;-0.01
72140;BMP280;60018;49.688;19.180;2022-11-15T06:01:40;97552.44;;;0.07
72140;BMP280;60018;49.688;19.180;2022-11-15T06:04:05;97561.53;;;0.16
72140;BMP280;60018;49.688;19.180;2022-11-15T06:06:32;97551.34;;;0.30
72140;BMP280;60018;49.688;19.180;2022-11-15T06:08:57;97550.16;;;0.36
72140;BMP280;60018;49.688;19.180;2022-11-15T06:11:23;97549.44;;;0.44
72140;BMP280;60018;49.688;19.180;2022-11-15T06:13:48;97546.06;;;0.57
72140;BMP280;60018;49.688;19.180;2022-11-15T06:16:14;97542.84;;;0.73
72140;BMP280;60018;49.688;19.180;2022-11-15T06:18:39;97545.69;;;0.89
72140;BMP280;60018;49.688;19.180;2022-11-15T06:21:05;97546.75;;;1.05
72140;BMP280;60018;49.688;19.180;2022-11-15T06:23:33;97546.47;;;1.23
72140;BMP280;60018;49.688;19.180;2022-11-15T06:26:00;97546.59;;;1.44
72140;BMP280;60018;49.688;19.180;2022-11-15T06:28:28;97560.09;;;1.65
72140;BMP280;60018;49.688;19.180;2022-11-15T06:30:53;97553.38;;;1.77
72140;BMP280;60018;49.688;19.180;2022-11-15T06:33:19;97550.63;;;1.91
72140;BMP280;60018;49.688;19.180;2022-11-15T06:35:44;97557.31;;;2.04
72140;BMP280;60018;49.688;19.180;2022-11-15T06:38:10;97564.16;;;2.12
72140;BMP280;60018;49.688;19.180;2022-11-15T06:40:39;97565.16;;;2.20
72140;BMP280;60018;49.688;19.180;2022-11-15T06:43:05;97569.13;;;2.29
72140;BMP280;60018;49.688;19.180;2022-11-15T06:45:31;97569.66;;;2.43
72140;BMP280;60018;49.688;19.180;2022-11-15T06:47:57;97570.28;;;2.61
72140;BMP280;60018;49.688;19.180;2022-11-15T06:50:22;97570.91;;;2.87
72140;BMP280;60018;49.688;19.180;2022-11-15T06:52:48;97571.16;;;3.14
72140;BMP280;60018;49.688;19.180;2022-11-15T06:55:13;97564.38;;;3.39
72140;BMP280;60018;49.688;19.180;2022-11-15T06:57:47;97566.69;;;3.64
72140;BMP280;60018;49.688;19.180;2022-11-15T07:00:14;97574.00;;;3.90
72140;BMP280;60018;49.688;19.180;2022-11-15T07:02:40;97565.22;;;4.12
72140;BMP280;60018;49.688;19.180;2022-11-15T07:05:06;97564.78;;;4.34
72140;BMP280;60018;49.688;19.180;2022-11-15T07:07:31;97564.91;;;4.49
72140;BMP280;60018;49.688;19.180;2022-11-15T07:09:56;97562.72;;;4.75
72140;BMP280;60018;49.688;19.180;2022-11-15T07:12:22;97564.69;;;4.94
72140;BMP280;60018;49.688;19.180;2022-11-15T07:14:49;97561.06;;;5.22
72140;BMP280;60018;49.688;19.180;2022-11-15T07:17:14;97571.34;;;5.41
72140;BMP280;60018;49.688;19.180;2022-11-15T07:19:40;97568.84;;;5.57
72140;BMP280;60018;49.688;19.180;2022-11-15T07:22:05;97575.44;;;5.73
72140;BMP280;60018;49.688;19.180;2022-11-15T07:24:31;97577.78;;;5.82
72140;BMP280;60018;49.688;19.180;2022-11-15T07:26:56;97580.19;;;5.90
72140;BMP280;60018;49.688;19.180;2022-11-15T07:29:21;97577.72;;;5.94
72140;BMP280;60018;49.688;19.180;2022-11-15T07:31:48;97569.03;;;5.95
72140;BMP280;60018;49.688;19.180;2022-11-15T07:34:14;97573.78;;;5.96
72140;BMP280;60018;49.688;19.180;2022-11-15T07:36:39;97574.19;;;5.98
72140;BMP280;60018;49.688;19.180;2022-11-15T07:39:05;97578.63;;;6.01
72140;BMP280;60018;49.688;19.180;2022-11-15T07:41:30;97572.22;;;6.07
72140;BMP280;60018;49.688;19.180;2022-11-15T07:43:55;97571.94;;;6.12
72140;BMP280;60018;49.688;19.180;2022-11-15T07:46:21;97565.69;;;6.25
72140;BMP280;60018;49.688;19.180;2022-11-15T07:48:48;97563.09;;;6.41
72140;BMP280;60018;49.688;19.180;2022-11-15T07:51:15;97561.38;;;6.64
72140;BMP280;60018;49.688;19.180;2022-11-15T07:53:41;97555.00;;;6.93
72140;BMP280;60018;49.688;19.180;2022-11-15T07:56:07;97555.19;;;7.22
72140;BMP280;60018;49.688;19.180;2022-11-15T07:58:32;97547.72;;;7.59
72140;BMP280;60018;49.688;19.180;2022-11-15T08:00:57;97554.84;;;7.95
72140;BMP280;60018;49.688;19.180;2022-11-15T08:03:23;97546.53;;;8.27
72140;BMP280;60018;49.688;19.180;2022-11-15T08:05:51;97554.97;;;8.64
72140;BMP280;60018;49.688;19.180;2022-11-15T08:08:16;97539.56;;;8.90
72140;BMP280;60018;49.688;19.180;2022-11-15T08:10:42;97542.31;;;9.15
72140;BMP280;60018;49.688;19.180;2022-11-15T08:13:09;97553.59;;;9.50
72140;BMP280;60018;49.688;19.180;2022-11-15T08:15:35;97543.84;;;9.70
72140;BMP280;60018;49.688;19.180;2022-11-15T08:18:02;97539.88;;;9.83
72140;BMP280;60018;49.688;19.180;2022-11-15T08:20:28;97538.16;;;10.01
72140;BMP280;60018;49.688;19.180;2022-11-15T08:22:56;97534.97;;;10.21
72140;BMP280;60018;49.688;19.180;2022-11-15T08:25:22;97526.97;;;10.44
72140;BMP280;60018;49.688;19.180;2022-11-15T08:27:50;97519.34;;;10.72
72140;BMP280;60018;49.688;19.180;2022-11-15T08:30:16;97523.78;;;11.03
72140;BMP280;60018;49.688;19.180;2022-11-15T08:32:41;97513.50;;;11.17
72140;BMP280;60018;49.688;19.180;2022-11-15T08:35:07;97514.25;;;11.28
72140;BMP280;60018;49.688;19.180;2022-11-15T08:37:33;97510.19;;;11.34
72140;BMP280;60018;49.688;19.180;2022-11-15T08:39:59;97507.22;;;11.60
72140;BMP280;60018;49.688;19.180;2022-11-15T08:42:25;97517.81;;;11.76
72140;BMP280;60018;49.688;19.180;2022-11-15T08:44:50;97507.94;;;11.67
72140;BMP280;60018;49.688;19.180;2022-11-15T08:47:16;97514.53;;;11.72
72140;BMP280;60018;49.688;19.180;2022-11-15T08:49:41;97507.81;;;11.99
72140;BMP280;60018;49.688;19.180;2022-11-15T08:52:06;97517.63;;;12.21
72140;BMP280;60018;49.688;19.180;2022-11-15T08:54:32;97506.81;;;12.51
72140;BMP280;60018;49.688;19.180;2022-11-15T08:56:59;97512.22;;;12.67
72140;BMP280;60018;49.688;19.180;2022-11-15T08:59:24;97511.75;;;12.79
72140;BMP280;60018;49.688;19.180;2022-11-15T09:01:49;97512.81;;;12.85
72140;BMP280;60018;49.688;19.180;2022-11-15T09:04:15;97496.31;;;12.82
72140;BMP280;60018;49.688;19.180;2022-11-15T09:06:40;97498.50;;;12.84
72140;BMP280;60018;49.688;19.180;2022-11-15T09:09:06;97494.06;;;12.84
72140;BMP280;60018;49.688;19.180;2022-11-15T09:11:31;97505.47;;;12.87
72140;BMP280;60018;49.688;19.180;2022-11-15T09:13:58;97511.66;;;12.93
72140;BMP280;60018;49.688;19.180;2022-11-15T09:16:23;97508.75;;;12.91
72140;BMP280;60018;49.688;19.180;2022-11-15T09:18:49;97496.25;;;12.89
72140;BMP280;60018;49.688;19.180;2022-11-15T09:21:14;97499.31;;;12.74
72140;BMP280;60018;49.688;19.180;2022-11-15T09:23:40;97496.50;;;12.54
72140;BMP280;60018;49.688;19.180;2022-11-15T09:26:05;97498.63;;;12.66
72140;BMP280;60018;49.688;19.180;2022-11-15T09:28:32;97485.63;;;12.84
72140;BMP280;60018;49.688;19.180;2022-11-15T09:31:01;97483.63;;;13.02
72140;BMP280;60018;49.688;19.180;2022-11-15T09:33:27;97491.13;;;13.23
72140;BMP280;60018;49.688;19.180;2022-11-15T09:35:53;97479.47;;;13.48
72140;BMP280;60018;49.688;19.180;2022-11-15T09:38:18;97479.97;;;13.70
72140;BMP280;60018;49.688;19.180;2022-11-15T09:40:45;97468.31;;;13.88
72140;BMP280;60018;49.688;19.180;2022-11-15T09:43:27;97467.41;;;14.02
72140;BMP280;60018;49.688;19.180;2022-11-15T09:46:02;97464.50;;;14.00
72140;BMP280;60018;49.688;19.180;2022-11-15T09:48:50;97454.34;;;13.89
72140;BMP280;60018;49.688;19.180;2022-11-15T09:51:24;97459.13;;;13.87
72140;BMP280;60018;49.688;19.180;2022-11-15T09:53:57;97466.34;;;13.99
72140;BMP280;60018;49.688;19.180;2022-11-15T09:56:27;97461.75;;;14.10
72140;BMP280;60018;49.688;19.180;2022-11-15T09:59:01;97452.97;;;14.08
72140;BMP280;60018;49.688;19.180;2022-11-15T10:01:41;97451.69;;;14.19
72140;BMP280;60018;49.688;19.180;2022-11-15T10:04:06;97431.38;;;14.21
72140;BMP280;60018;49.688;19.180;2022-11-15T10:06:32;97446.56;;;14.16
72140;BMP280;60018;49.688;19.180;2022-11-15T10:09:04;97446.47;;;14.23
72140;BMP280;60018;49.688;19.180;2022-11-15T10:11:34;97431.22;;;14.32
72140;BMP280;60018;49.688;19.180;2022-11-15T10:14:02;97436.03;;;14.53
72140;BMP280;60018;49.688;19.180;2022-11-15T10:19:39;97431.00;;;14.69
72140;BMP280;60018;49.688;19.180;2022-11-15T10:22:17;97433.53;;;14.72
72140;BMP280;60018;49.688;19.180;2022-11-15T10:24:46;97416.72;;;14.84
72140;BMP280;60018;49.688;19.180;2022-11-15T10:27:13;97421.22;;;14.99
72140;BMP280;60018;49.688;19.180;2022-11-15T10:29:43;97419.53;;;15.12
72140;BMP280;60018;49.688;19.180;2022-11-15T10:32:10;97416.88;;;15.16
72140;BMP280;60018;49.688;19.180;2022-11-15T10:34:36;97416.00;;;15.03
72140;BMP280;60018;49.688;19.180;2022-11-15T10:37:02;97405.34;;;15.01
72140;BMP280;60018;49.688;19.180;2022-11-15T10:39:27;97406.72;;;14.86
72140;BMP280;60018;49.688;19.180;2022-11-15T10:41:53;97391.03;;;14.77
72140;BMP280;60018;49.688;19.180;2022-11-15T10:44:25;97399.16;;;14.75
72140;BMP280;60018;49.688;19.180;2022-11-15T10:47:06;97394.09;;;14.68
72140;BMP280;60018;49.688;19.180;2022-11-15T10:49:34;97396.38;;;14.66
72140;BMP280;60018;49.688;19.180;2022-11-15T10:52:02;97381.34;;;14.81
72140;BMP280;60018;49.688;19.180;2022-11-15T10:54:33;97375.06;;;14.82
72140;BMP280;60018;49.688;19.180;2022-11-15T10:57:05;97372.59;;;14.75
72140;BMP280;60018;49.688;19.180;2022-11-15T10:59:32;97371.41;;;14.79
72140;BMP280;60018;49.688;19.180;2022-11-15T11:02:00;97376.06;;;14.88
72140;BMP280;60018;49.688;19.180;2022-11-15T11:04:26;97377.50;;;14.89
72140;BMP280;60018;49.688;19.180;2022-11-15T11:06:54;97364.81;;;14.78
72140;BMP280;60018;49.688;19.180;2022-11-15T11:09:31;97368.69;;;14.67
72140;BMP280;60018;49.688;19.180;2022-11-15T11:11:57;97362.84;;;14.63
72140;BMP280;60018;49.688;19.180;2022-11-15T11:14:24;97352.69;;;14.56
72140;BMP280;60018;49.688;19.180;2022-11-15T11:16:52;97348.94;;;14.57
72140;BMP280;60018;49.688;19.180;2022-11-15T11:19:33;97346.72;;;14.59
72140;BMP280;60018;49.688;19.180;2022-11-15T11:22:06;97340.66;;;14.65
72140;BMP280;60018;49.688;19.180;2022-11-15T11:24:42;97349.41;;;14.52
72140;BMP280;60018;49.688;19.180;2022-11-15T11:27:18;97352.16;;;14.41
72140;BMP280;60018;49.688;19.180;2022-11-15T11:29:58;97343.34;;;14.39
72140;BMP280;60018;49.688;19.180;2022-11-15T11:32:38;97337.41;;;14.42
72140;BMP280;60018;49.688;19.180;2022-11-15T11:35:12;97340.34;;;14.63
72140;BMP280;60018;49.688;19.180;2022-11-15T11:37:47;97330.06;;;14.79
72140;BMP280;60018;49.688;19.180;2022-11-15T11:40:24;97329.50;;;14.91
72140;BMP280;60018;49.688;19.180;2022-11-15T11:42:56;97329.81;;;14.93
72140;BMP280;60018;49.688;19.180;2022-11-15T11:45:36;97329.00;;;14.96
72140;BMP280;60018;49.688;19.180;2022-11-15T11:48:10;97325.16;;;15.04
72140;BMP280;60018;49.688;19.180;2022-11-15T11:50:37;97322.59;;;15.04
72140;BMP280;60018;49.688;19.180;2022-11-15T11:53:11;97315.56;;;15.05
72140;BMP280;60018;49.688;19.180;2022-11-15T11:55:39;97310.88;;;15.00
72140;BMP280;60018;49.688;19.180;2022-11-15T11:58:12;97308.63;;;14.82
72140;BMP280;60018;49.688;19.180;2022-11-15T12:00:41;97303.13;;;14.61
72140;BMP280;60018;49.688;19.180;2022-11-15T12:03:11;97303.47;;;14.43
72140;BMP280;60018;49.688;19.180;2022-11-15T12:05:40;97296.97;;;14.35
72140;BMP280;60018;49.688;19.180;2022-11-15T12:08:20;97292.06;;;14.41
72140;BMP280;60018;49.688;19.180;2022-11-15T12:10:52;97291.47;;;14.53
72140;BMP280;60018;49.688;19.180;2022-11-15T12:13:21;97284.00;;;14.78
72140;BMP280;60018;49.688;19.180;2022-11-15T12:15:55;97284.91;;;14.87
72140;BMP280;60018;49.688;19.180;2022-11-15T12:18:22;97286.84;;;14.83
72140;BMP280;60018;49.688;19.180;2022-11-15T12:20:52;97276.56;;;14.80
72140;BMP280;60018;49.688;19.180;2022-11-15T12:23:25;97276.72;;;14.73
72140;BMP280;60018;49.688;19.180;2022-11-15T12:25:53;97280.63;;;14.61
72140;BMP280;60018;49.688;19.180;2022-11-15T12:28:27;97272.28;;;14.54
72140;BMP280;60018;49.688;19.180;2022-11-15T12:31:00;97271.63;;;14.50
72140;BMP280;60018;49.688;19.180;2022-11-15T12:33:32;97269.91;;;14.43
72140;BMP280;60018;49.688;19.180;2022-11-15T12:36:00;97259.59;;;14.43
72140;BMP280;60018;49.688;19.180;2022-11-15T12:39:01;97262.56;;;14.42
72140;BMP280;60018;49.688;19.180;2022-11-15T12:41:28;97258.50;;;14.41
72140;BMP280;60018;49.688;19.180;2022-11-15T12:43:54;97261.44;;;14.43
72140;BMP280;60018;49.688;19.180;2022-11-15T12:47:01;97250.38;;;14.42
72140;BMP280;60018;49.688;19.180;2022-11-15T12:49:44;97249.72;;;14.38
72140;BMP280;60018;49.688;19.180;2022-11-15T12:52:10;97245.41;;;14.32
72140;BMP280;60018;49.688;19.180;2022-11-15T12:54:56;97245.84;;;14.27
72140;BMP280;60018;49.688;19.180;2022-11-15T12:57:38;97247.97;;;14.32
72140;BMP280;60018;49.688;19.180;2022-11-15T13:03:27;97236.06;;;14.18
72140;BMP280;60018;49.688;19.180;2022-11-15T13:06:08;97230.22;;;14.14
72140;BMP280;60018;49.688;19.180;2022-11-15T13:08:43;97237.66;;;14.12
72140;BMP280;60018;49.688;19.180;2022-11-15T13:14:43;97234.44;;;14.05
72140;BMP280;60018;49.688;19.180;2022-11-15T13:17:31;97221.66;;;13.98
72140;BMP280;60018;49.688;19.180;2022-11-15T13:20:00;97224.03;;;13.89
72140;BMP280;60018;49.688;19.180;2022-11-15T13:22:27;97228.91;;;13.83
72140;BMP280;60018;49.688;19.180;2022-11-15T13:24:53;97228.34;;;13.72
72140;BMP280;60018;49.688;19.180;2022-11-15T13:27:19;97220.78;;;13.62
72140;BMP280;60018;49.688;19.180;2022-11-15T13:29:46;97211.38;;;13.52
72140;BMP280;60018;49.688;19.180;2022-11-15T13:32:13;97215.13;;;13.47
72140;BMP280;60018;49.688;19.180;2022-11-15T13:34:43;97217.13;;;13.36
72140;BMP280;60018;49.688;19.180;2022-11-15T13:37:12;97208.78;;;13.29
72140;BMP280;60018;49.688;19.180;2022-11-15T13:39:52;97211.78;;;13.24
72140;BMP280;60018;49.688;19.180;2022-11-15T13:42:18;97207.41;;;13.21
72140;BMP280;60018;49.688;19.180;2022-11-15T13:44:56;97206.09;;;13.09
72140;BMP280;60018;49.688;19.180;2022-11-15T13:47:25;97207.41;;;12.94
72140;BMP280;60018;49.688;19.180;2022-11-15T13:49:50;97203.81;;;12.88
72140;BMP280;60018;49.688;19.180;2022-11-15T13:52:16;97200.28;;;12.72
72140;BMP280;60018;49.688;19.180;2022-11-15T13:54:43;97211.22;;;12.53
72140;BMP280;60018;49.688;19.180;2022-11-15T13:57:12;97197.34;;;12.43
72140;BMP280;60018;49.688;19.180;2022-11-15T13:59:45;97205.88;;;12.33
72140;BMP280;60018;49.688;19.180;2022-11-15T14:02:15;97198.31;;;12.19
72140;BMP280;60018;49.688;19.180;2022-11-15T14:04:46;97196.22;;;12.07
72140;BMP280;60018;49.688;19.180;2022-11-15T14:07:16;97198.94;;;11.93
72140;BMP280;60018;49.688;19.180;2022-11-15T14:09:42;97191.72;;;11.81
72140;BMP280;60018;49.688;19.180;2022-11-15T14:12:29;97194.34;;;11.71
72140;BMP280;60018;49.688;19.180;2022-11-15T14:14:55;97189.63;;;11.66
72140;BMP280;60018;49.688;19.180;2022-11-15T14:17:35;97179.75;;;11.57
72140;BMP280;60018;49.688;19.180;2022-11-15T14:20:01;97190.84;;;11.47